Time;durP1;ratioP1;P1;durP2;ratioP2;P2;SDS_P1;SDS_P2;PMS_P1;PMS_P2;Temp;Humidity;BMP_temperature;BMP_pressure;BME280_temperature;BME280_humidity;BME280_pressure;Samples;Min_cycle;Max_cycle;Signal;HPM_P1;HPM_P2
2024/01/18 00:03:39;;;;;;;20.23;16.37;;;6.60;99.90;;;;;;5953481;24;20024;-79
2024/01/18 00:09:38;;;;;;;19.80;12.23;;;6.60;99.90;;;;;;5951809;24;20037;-79
2024/01/18 00:12:04;;;;;;;17.27;11.90;;;6.60;99.90;;;;;;5953055;24;20348;-80
2024/01/18 00:14:30;;;;;;;15.73;10.80;;;6.60;99.90;;;;;;6078157;23;20013;-78
2024/01/18 00:16:56;;;;;;;15.07;11.07;;;6.60;99.90;;;;;;6195890;23;20004;-80
2024/01/18 00:19:22;;;;;;;14.83;10.70;;;6.70;99.90;;;;;;6246080;23;20015;-79
2024/01/18 00:21:47;;;;;;;18.00;11.13;;;6.60;99.90;;;;;;6246203;23;20002;-80
2024/01/18 00:24:13;;;;;;;12.27;10.00;;;6.70;99.90;;;;;;6246452;23;20063;-80
2024/01/18 00:26:39;;;;;;;14.17;10.23;;;6.60;99.90;;;;;;6246022;23;20008;-80
2024/01/18 00:29:05;;;;;;;15.23;11.00;;;6.60;99.90;;;;;;6219043;23;20004;-79
2024/01/18 00:31:30;;;;;;;14.40;10.70;;;6.60;99.90;;;;;;6245815;23;20339;-80
2024/01/18 00:33:59;;;;;;;14.40;10.23;;;6.60;99.90;;;;;;6245593;23;19996;-78
2024/01/18 00:36:25;;;;;;;14.77;10.90;;;6.60;99.90;;;;;;6218560;23;20441;-80
2024/01/18 00:38:51;;;;;;;14.63;10.93;;;6.60;99.90;;;;;;6246132;23;20494;-80
2024/01/18 00:41:17;;;;;;;13.60;10.63;;;6.70;99.90;;;;;;6245773;23;20024;-79
2024/01/18 00:43:42;;;;;;;15.93;10.20;;;6.70;99.90;;;;;;6245641;23;20007;-80
2024/01/18 00:46:08;;;;;;;18.17;10.97;;;6.70;99.90;;;;;;6245686;23;20000;-80
2024/01/18 00:48:34;;;;;;;14.47;10.83;;;6.70;99.90;;;;;;6245951;23;20004;-78
2024/01/18 00:51:00;;;;;;;14.93;11.77;;;6.70;99.90;;;;;;6245956;23;20068;-78
2024/01/18 00:53:25;;;;;;;13.87;10.60;;;6.70;99.90;;;;;;6243842;23;20000;-79
2024/01/18 00:55:52;;;;;;;15.20;10.73;;;6.70;99.90;;;;;;6245606;23;20073;-79
2024/01/18 00:58:17;;;;;;;13.30;10.10;;;6.70;99.90;;;;;;6245419;23;20007;-79
2024/01/18 01:00:43;;;;;;;14.03;10.80;;;6.70;99.90;;;;;;6245991;23;20000;-79
2024/01/18 01:03:09;;;;;;;13.63;9.47;;;6.70;99.90;;;;;;6242597;23;20000;-79
2024/01/18 01:05:35;;;;;;;12.57;8.43;;;6.70;99.90;;;;;;6242454;23;20000;-79
2024/01/18 01:08:00;;;;;;;12.37;8.27;;;6.70;99.90;;;;;;6244183;23;20027;-80
2024/01/18 01:10:26;;;;;;;13.30;8.50;;;6.70;99.90;;;;;;6245604;23;20031;-80
2024/01/18 01:12:52;;;;;;;12.37;8.03;;;6.70;99.90;;;;;;6246423;23;20012;-77
2024/01/18 01:15:18;;;;;;;12.93;8.20;;;6.70;99.90;;;;;;6246470;23;20330;-78
2024/01/18 01:17:47;;;;;;;11.57;7.47;;;6.70;99.90;;;;;;6246167;23;20329;-75
2024/01/18 01:20:17;;;;;;;11.30;7.53;;;6.70;99.90;;;;;;6246114;23;20031;-80
2024/01/18 01:37:05;;;;;;;10.50;5.53;;;6.80;99.90;;;;;;6065530;23;20171;-75
2024/01/18 01:40:27;;;;;;;10.20;6.23;;;6.80;99.90;;;;;;6065326;23;20007;-79
2024/01/18 01:43:39;;;;;;;;;;;;;;;;;;;;;
2024/01/18 01:46:05;;;;;;;10.17;6.60;;;6.80;99.90;;;;;;6074194;23;20556;-79
2024/01/18 01:48:31;;;;;;;9.90;6.73;;;6.80;99.90;;;;;;6150393;23;20377;-80
2024/01/18 01:50:57;;;;;;;11.13;6.67;;;6.80;99.90;;;;;;6244911;23;20330;-79
2024/01/18 01:53:23;;;;;;;18.77;11.30;;;6.80;99.90;;;;;;6245469;23;20312;-80
2024/01/18 01:55:49;;;;;;;18.03;13.07;;;6.90;99.90;;;;;;6245580;23;20007;-78
2024/01/18 01:58:17;;;;;;;17.40;14.87;;;6.90;99.90;;;;;;6243234;23;20007;-78
2024/01/18 02:00:44;;;;;;;20.07;15.50;;;6.90;99.90;;;;;;6241676;23;20081;-79
2024/01/18 02:03:10;;;;;;;21.10;17.07;;;6.90;99.90;;;;;;6241908;23;20019;-79
2024/01/18 02:05:36;;;;;;;27.47;21.23;;;6.90;99.90;;;;;;6244217;23;20008;-79
2024/01/18 02:08:01;;;;;;;26.93;21.10;;;7.00;99.90;;;;;;6244618;23;20003;-78
2024/01/18 02:10:28;;;;;;;26.10;20.43;;;6.90;99.90;;;;;;6217801;23;20038;-79
2024/01/18 02:12:54;;;;;;;31.10;24.07;;;6.90;99.90;;;;;;6244160;23;20431;-78
2024/01/18 02:15:21;;;;;;;32.47;23.80;;;6.90;99.90;;;;;;6243902;23;20004;-70
2024/01/18 02:17:47;;;;;;;32.93;25.63;;;6.90;99.90;;;;;;6244592;23;20449;-78
2024/01/18 02:20:13;;;;;;;30.10;24.43;;;6.90;99.90;;;;;;6217563;23;20000;-79
2024/01/18 02:22:45;;;;;;;31.13;23.30;;;6.80;99.90;;;;;;6244835;23;20004;-80
2024/01/18 02:25:24;;;;;;;30.55;23.67;;;6.90;99.90;;;;;;6244810;23;20004;-80
2024/01/18 02:27:56;;;;;;;29.50;23.47;;;6.80;99.90;;;;;;6245071;23;20032;-79
2024/01/18 02:30:23;;;;;;;27.85;21.63;;;6.80;99.90;;;;;;6244803;23;20000;-77
2024/01/18 02:32:49;;;;;;;28.43;21.97;;;6.80;99.90;;;;;;6244744;23;20008;-80
2024/01/18 02:35:15;;;;;;;26.13;20.43;;;6.80;99.90;;;;;;6244374;23;20000;-78
2024/01/18 02:37:42;;;;;;;30.27;22.00;;;6.90;99.90;;;;;;6244540;23;20000;-79
2024/01/18 02:40:08;;;;;;;25.10;20.30;;;6.90;99.90;;;;;;6244823;23;20047;-78
2024/01/18 02:42:34;;;;;;;25.53;21.07;;;6.90;99.90;;;;;;6218503;23;20005;-78
2024/01/18 02:45:02;;;;;;;25.33;19.90;;;6.90;99.90;;;;;;6245112;23;20000;-79
2024/01/18 02:47:28;;;;;;;25.00;20.50;;;6.90;99.90;;;;;;6245798;23;20327;-80
2024/01/18 02:49:56;;;;;;;28.00;20.03;;;6.90;99.90;;;;;;6245502;23;20382;-79
2024/01/18 02:52:22;;;;;;;28.30;22.03;;;6.90;99.90;;;;;;6245532;23;20334;-79
2024/01/18 02:54:48;;;;;;;27.13;20.83;;;6.90;99.90;;;;;;6244790;23;20002;-78
2024/01/18 02:57:16;;;;;;;26.30;20.80;;;6.90;99.90;;;;;;6245168;23;20005;-79
2024/01/18 03:24:30;;;;;;;14.67;10.23;;;7.00;99.90;;;;;;6038377;23;20403;-79
2024/01/18 03:26:57;;;;;;;17.80;10.37;;;7.10;99.90;;;;;;6064793;23;20344;-78
2024/01/18 03:29:22;;;;;;;20.90;11.13;;;7.10;99.90;;;;;;6213336;23;20004;-79
2024/01/18 03:31:48;;;;;;;18.23;10.63;;;7.10;99.90;;;;;;6246745;23;20138;-79
2024/01/18 03:34:14;;;;;;;16.63;10.07;;;7.10;99.90;;;;;;6246326;23;20002;-79
2024/01/18 03:36:40;;;;;;;17.53;10.73;;;7.10;99.90;;;;;;6246578;23;20011;-80
2024/01/18 03:39:09;;;;;;;17.33;11.00;;;7.10;99.90;;;;;;6246585;23;20007;-78
2024/01/18 03:41:34;;;;;;;22.43;11.60;;;7.20;99.90;;;;;;6246701;23;20028;-80
2024/01/18 03:44:00;;;;;;;18.10;10.83;;;7.20;99.90;;;;;;6246372;23;20007;-79
2024/01/18 03:46:26;;;;;;;18.77;12.17;;;7.20;99.90;;;;;;6246508;23;20028;-79
2024/01/18 03:48:52;;;;;;;19.00;12.30;;;;;;;;;;6219458;23;20488;-80
2024/01/18 03:51:18;;;;;;;17.13;12.23;;;;;;;;;;6246548;23;20123;-79
2024/01/18 03:53:44;;;;;;;18.17;12.73;;;;;;;;;;6246120;23;20008;-80
2024/01/18 03:56:13;;;;;;;18.30;13.50;;;;;;;;;;6246453;23;20415;-79
2024/01/18 03:58:40;;;;;;;17.33;13.90;;;;;;;;;;6246570;23;20426;-79
2024/01/18 04:01:06;;;;;;;18.30;14.27;;;;;;;;;;6246316;23;20423;-79
2024/01/18 04:03:32;;;;;;;18.27;13.57;;;;;;;;;;6246424;23;20485;-80
2024/01/18 04:05:59;;;;;;;21.00;15.50;;;;;;;;;;6246597;23;20027;-79
2024/01/18 04:08:25;;;;;;;24.20;17.17;;;;;;;;;;6246276;23;20035;-79
2024/01/18 04:10:51;;;;;;;22.37;17.53;;;;;;;;;;6246457;23;19996;-79
2024/01/18 04:13:18;;;;;;;19.93;13.80;;;;;;;;;;6245886;23;20099;-80
2024/01/18 04:15:44;;;;;;;17.50;13.87;;;;;;;;;;6245351;23;20494;-80
2024/01/18 04:18:10;;;;;;;18.20;13.23;;;;;;;;;;6245575;23;20000;-80
2024/01/18 04:20:36;;;;;;;19.47;11.60;;;;;;;;;;6246639;23;20426;-79
2024/01/18 04:23:02;;;;;;;17.03;10.80;;;;;;;;;;6245562;23;20484;-80
2024/01/18 04:25:28;;;;;;;16.87;11.87;;;;;;;;;;6246315;23;20007;-80
2024/01/18 04:27:55;;;;;;;16.40;11.27;;;;;;;;;;6246835;23;20322;-79
2024/01/18 04:30:21;;;;;;;17.03;11.50;;;;;;;;;;6246964;23;20004;-80
2024/01/18 04:32:47;;;;;;;16.87;12.40;;;;;;;;;;6246734;23;20051;-78
2024/01/18 04:35:13;;;;;;;18.30;12.50;;;;;;;;;;6247118;23;20330;-80
2024/01/18 04:37:40;;;;;;;18.20;12.80;;;;;;;;;;6246495;23;20051;-77
2024/01/18 04:58:40;;;;;;;21.33;12.13;;;;;;;;;;6153578;23;20525;-75
2024/01/18 05:04:19;;;;;;;15.30;11.23;;;;;;;;;;6107751;23;20012;-79
2024/01/18 05:06:45;;;;;;;14.90;11.33;;;;;;;;;;6152656;23;20037;-79
2024/01/18 05:09:16;;;;;;;14.07;10.27;;;;;;;;;;6200071;23;20331;-79
2024/01/18 05:11:42;;;;;;;13.57;9.60;;;;;;;;;;6245964;23;20008;-80
2024/01/18 05:14:09;;;;;;;15.53;9.97;;;;;;;;;;6245575;23;20019;-78
2024/01/18 05:16:39;;;;;;;11.87;9.53;;;;;;;;;;6245641;23;20058;-78
2024/01/18 05:19:08;;;;;;;12.13;9.80;;;;;;;;;;6245254;23;20308;-79
2024/01/18 05:21:34;;;;;;;13.00;9.47;;;;;;;;;;6245732;23;20011;-79
2024/01/18 05:24:00;;;;;;;10.60;9.07;;;;;;;;;;6245528;23;20079;-79
2024/01/18 05:26:26;;;;;;;11.77;10.10;;;;;;;;;;6245532;23;20369;-79
2024/01/18 05:28:52;;;;;;;10.63;9.00;;;;;;;;;;6245356;23;20004;-80
2024/01/18 05:31:18;;;;;;;10.33;8.57;;;;;;;;;;6245045;23;20300;-79
2024/01/18 05:33:44;;;;;;;13.17;10.13;;;;;;;;;;6246112;23;20015;-79
2024/01/18 05:36:10;;;;;;;13.33;10.83;;;;;;;;;;6245673;23;20007;-78
2024/01/18 05:38:36;;;;;;;15.53;10.63;;;;;;;;;;6245260;23;20454;-79
2024/01/18 05:41:03;;;;;;;14.53;10.03;;;;;;;;;;6245298;23;20439;-77
2024/01/18 05:43:29;;;;;;;16.30;10.53;;;;;;;;;;6245578;23;20448;-80
2024/01/18 05:45:55;;;;;;;15.97;11.37;;;;;;;;;;6246082;23;20000;-79
2024/01/18 05:48:21;;;;;;;16.53;11.30;;;;;;;;;;6245616;23;20005;-79
2024/01/18 05:50:47;;;;;;;18.83;11.63;;;;;;;;;;6245194;23;20419;-76
2024/01/18 05:53:13;;;;;;;15.83;12.10;;;;;;;;;;6245438;23;20008;-77
2024/01/18 05:55:39;;;;;;;15.37;11.33;;;;;;;;;;6245525;23;20131;-80
2024/01/18 05:58:05;;;;;;;14.43;11.13;;;;;;;;;;6245375;23;20004;-79
2024/01/18 06:00:31;;;;;;;14.37;12.30;;;;;;;;;;6245361;23;19996;-81
2024/01/18 06:02:58;;;;;;;16.30;12.10;;;;;;;;;;6244677;22;20050;-79
2024/01/18 06:05:25;;;;;;;16.33;11.20;;;;;;;;;;6244818;23;20001;-80
2024/01/18 06:07:51;;;;;;;14.67;11.40;;;;;;;;;;6218342;23;20418;-71
2024/01/18 06:10:18;;;;;;;18.50;12.43;;;;;;;;;;6245917;23;20049;-70
2024/01/18 06:12:44;;;;;;;23.07;13.90;;;;;;;;;;6244876;23;20430;-67
2024/01/18 06:15:10;;;;;;;35.70;18.37;;;;;;;;;;6243932;23;20082;-67
2024/01/18 06:17:37;;;;;;;33.43;20.40;;;;;;;;;;6244536;23;20518;-68
2024/01/18 06:20:03;;;;;;;33.50;19.73;;;;;;;;;;6244929;23;20419;-73
2024/01/18 06:22:29;;;;;;;32.30;20.30;;;;;;;;;;6244900;23;20429;-65
2024/01/18 06:24:55;;;;;;;37.03;20.10;;;;;;;;;;6245318;23;20362;-63
2024/01/18 06:27:22;;;;;;;36.23;21.20;;;;;;;;;;6245164;23;20004;-64
2024/01/18 06:29:48;;;;;;;36.90;22.00;;;;;;;;;;6245602;23;20003;-64
2024/01/18 06:32:14;;;;;;;36.43;20.53;;;;;;;;;;6245057;23;20008;-64
2024/01/18 06:34:40;;;;;;;37.40;20.50;;;;;;;;;;6245154;23;20035;-63
2024/01/18 06:37:06;;;;;;;35.80;21.20;;;;;;;;;;6245250;23;20004;-64
2024/01/18 06:39:32;;;;;;;31.37;20.77;;;;;;;;;;6245181;23;20004;-64
2024/01/18 06:41:58;;;;;;;35.53;24.20;;;;;;;;;;6245156;23;20007;-64
2024/01/18 06:44:24;;;;;;;31.57;20.53;;;;;;;;;;6245546;23;20415;-64
2024/01/18 06:46:51;;;;;;;29.57;18.70;;;;;;;;;;6245504;23;20062;-64
2024/01/18 06:49:17;;;;;;;29.83;20.17;;;;;;;;;;6248032;23;20033;-64
2024/01/18 06:51:43;;;;;;;29.03;19.23;;;;;;;;;;6247791;23;20012;-65
2024/01/18 06:54:10;;;;;;;28.37;17.67;;;7.20;99.90;;;;;;6247584;23;20023;-65
2024/01/18 06:56:37;;;;;;;24.23;16.03;;;8.60;99.90;;;;;;6247645;23;20005;-65
2024/01/18 06:59:30;;;;;;;24.03;15.10;;;8.60;99.90;;;;;;6247005;23;20004;-65
2024/01/18 07:01:58;;;;;;;18.60;11.52;;;8.60;99.90;;;;;;6246811;23;20012;-65
2024/01/18 07:05:01;;;;;;;16.20;11.70;;;8.70;99.90;;;;;;6242390;23;20016;-66
2024/01/18 07:08:30;;;;;;;17.37;12.20;;;8.70;99.90;;;;;;6183956;23;20013;-66
2024/01/18 07:17:40;;;;;;;19.55;13.30;;;8.80;99.90;;;;;;6123927;23;20017;-65
2024/01/18 07:23:39;;;;;;;20.37;15.37;;;8.80;99.90;;;;;;6124039;23;20102;-65
2024/01/18 07:26:05;;;;;;;23.43;16.40;;;8.80;99.90;;;;;;6124496;23;20381;-65
2024/01/18 07:28:31;;;;;;;25.30;16.70;;;8.80;99.90;;;;;;6200434;23;20032;-65
2024/01/18 07:30:57;;;;;;;25.17;17.47;;;8.80;99.90;;;;;;6243090;23;20012;-67
2024/01/18 07:33:23;;;;;;;29.17;21.80;;;8.70;99.90;;;;;;6243202;23;20063;-66
2024/01/18 07:35:48;;;;;;;28.93;21.87;;;8.70;99.90;;;;;;6244319;23;20004;-65
2024/01/18 07:38:15;;;;;;;39.93;21.40;;;8.60;99.90;;;;;;6246959;23;20043;-65
2024/01/18 07:40:41;;;;;;;25.47;19.97;;;8.50;99.90;;;;;;6246915;23;20414;-65
2024/01/18 07:43:07;;;;;;;37.40;22.37;;;8.40;99.90;;;;;;6220090;23;20034;-64
2024/01/18 07:45:33;;;;;;;35.57;24.57;;;8.30;99.90;;;;;;6246491;23;20007;-65
2024/01/18 07:47:59;;;;;;;34.83;20.27;;;8.30;99.90;;;;;;6247214;23;20004;-64
2024/01/18 07:50:24;;;;;;;48.07;20.87;;;8.30;99.90;;;;;;6246785;23;20000;-66
2024/01/18 07:52:51;;;;;;;29.43;21.17;;;8.10;99.90;;;;;;6246420;23;20012;-66
2024/01/18 07:55:18;;;;;;;40.70;20.10;;;8.10;99.90;;;;;;6245747;23;20004;-67
2024/01/18 07:57:44;;;;;;;39.67;20.47;;;8.10;99.90;;;;;;6242759;23;20004;-65
2024/01/18 08:00:10;;;;;;;31.80;18.17;;;8.00;99.90;;;;;;6244000;23;20027;-65
2024/01/18 08:02:36;;;;;;;30.13;17.70;;;8.00;99.90;;;;;;6246803;23;20069;-64
2024/01/18 08:05:02;;;;;;;29.73;16.87;;;8.00;99.90;;;;;;6246589;23;20020;-65
2024/01/18 08:07:28;;;;;;;32.50;18.07;;;7.90;99.90;;;;;;6246758;23;20031;-65
2024/01/18 08:09:54;;;;;;;30.47;17.40;;;7.90;99.90;;;;;;6244749;23;20003;-64
2024/01/18 08:12:19;;;;;;;33.37;16.07;;;7.90;99.90;;;;;;6194450;23;20069;-65
2024/01/18 08:14:45;;;;;;;26.17;16.13;;;7.90;99.90;;;;;;6185343;23;20002;-64
2024/01/18 08:17:11;;;;;;;29.27;17.17;;;7.90;99.90;;;;;;6185290;23;20029;-64
2024/01/18 08:19:39;;;;;;;40.67;19.30;;;7.90;99.90;;;;;;6185604;23;20055;-64
2024/01/18 08:22:06;;;;;;;33.27;18.47;;;7.90;99.90;;;;;;6185864;23;19997;-64
2024/01/18 08:24:32;;;;;;;40.53;20.27;;;7.90;99.90;;;;;;6185507;23;20076;-64
2024/01/18 08:26:57;;;;;;;46.57;21.57;;;7.90;99.90;;;;;;6184586;23;20043;-65
2024/01/18 08:29:23;;;;;;;65.90;18.47;;;7.90;99.90;;;;;;6186488;23;20008;-64
2024/01/18 08:31:49;;;;;;;61.60;26.03;;;7.90;99.90;;;;;;6186175;23;20011;-64
2024/01/18 08:34:15;;;;;;;61.30;28.77;;;7.90;99.90;;;;;;6186148;23;20446;-65
2024/01/18 08:36:53;;;;;;;65.67;18.20;;;7.90;99.90;;;;;;6185589;23;20011;-64
2024/01/18 08:39:37;;;;;;;75.00;19.10;;;7.90;99.90;;;;;;6184468;23;20015;-66
2024/01/18 08:42:08;;;;;;;174.77;39.87;;;7.80;99.90;;;;;;6183724;23;20426;-63
2024/01/18 08:44:36;;;;;;;84.77;26.47;;;7.80;99.90;;;;;;6183658;23;20009;-65
2024/01/18 08:47:06;;;;;;;129.37;36.63;;;7.80;99.90;;;;;;6206576;23;19997;-64
2024/01/18 08:49:35;;;;;;;124.87;37.03;;;7.80;99.90;;;;;;6184873;23;20028;-64
2024/01/18 08:52:59;;;;;;;97.93;26.70;;;7.80;99.90;;;;;;6184438;23;20021;-64
2024/01/18 08:55:25;;;;;;;78.27;22.57;;;7.80;99.90;;;;;;6084513;23;20009;-65
2024/01/18 08:57:51;;;;;;;62.70;27.13;;;7.90;99.90;;;;;;6185392;23;20059;-74
2024/01/18 09:00:21;;;;;;;44.10;22.03;;;7.90;99.90;;;;;;6185390;23;20001;-64
2024/01/18 09:02:48;;;;;;;84.47;18.90;;;7.90;99.90;;;;;;6185522;23;20001;-67
2024/01/18 09:05:13;;;;;;;51.67;16.60;;;7.90;99.90;;;;;;6185097;23;20088;-64
2024/01/18 09:07:40;;;;;;;44.57;15.77;;;7.90;99.90;;;;;;6183376;23;20041;-64
2024/01/18 09:10:09;;;;;;;40.53;15.77;;;7.90;99.90;;;;;;6185020;23;20052;-64
2024/01/18 09:12:36;;;;;;;26.10;15.30;;;7.90;99.90;;;;;;6181815;23;20432;-64
2024/01/18 09:15:03;;;;;;;43.17;14.47;;;7.90;99.90;;;;;;6185063;23;19997;-66
2024/01/18 09:17:30;;;;;;;56.93;17.27;;;7.90;99.90;;;;;;6182868;23;20007;-64
2024/01/18 09:19:56;;;;;;;42.50;16.10;;;7.90;99.90;;;;;;6184609;23;20005;-64
2024/01/18 09:22:23;;;;;;;74.37;15.63;;;8.00;99.90;;;;;;6185605;23;20005;-64
2024/01/18 09:24:49;;;;;;;45.37;14.53;;;7.90;99.90;;;;;;6185605;23;20001;-64
2024/01/18 09:27:15;;;;;;;40.83;13.80;;;7.90;99.90;;;;;;6185426;23;20027;-63
2024/01/18 09:29:41;;;;;;;58.97;15.13;;;8.00;99.90;;;;;;6185725;23;20009;-65
2024/01/18 09:32:07;;;;;;;44.77;14.30;;;8.00;99.90;;;;;;6183424;23;20013;-64
2024/01/18 09:34:33;;;;;;;92.77;15.37;;;8.00;99.90;;;;;;6183101;23;20086;-65
2024/01/18 09:36:59;;;;;;;50.37;14.53;;;8.00;99.90;;;;;;6183397;23;20487;-63
2024/01/18 09:39:25;;;;;;;60.13;15.30;;;8.00;99.90;;;;;;6183294;23;20432;-64
2024/01/18 09:41:58;;;;;;;40.67;14.07;;;8.00;99.90;;;;;;6183260;23;20008;-65
2024/01/18 09:44:31;;;;;;;36.57;15.10;;;8.00;99.90;;;;;;6183033;23;19997;-65
2024/01/18 09:46:58;;;;;;;58.93;14.00;;;8.00;99.90;;;;;;6182623;23;20063;-65
2024/01/18 09:49:27;;;;;;;30.37;15.30;;;8.00;99.90;;;;;;6158252;23;20367;-65
2024/01/18 09:51:55;;;;;;;28.17;13.43;;;8.00;99.90;;;;;;6185051;23;20009;-65
2024/01/18 09:54:21;;;;;;;34.67;13.37;;;8.00;99.90;;;;;;6185751;23;20005;-65
2024/01/18 09:56:52;;;;;;;32.73;13.50;;;8.00;99.90;;;;;;6185665;23;20115;-65
2024/01/18 09:59:18;;;;;;;25.73;12.03;;;8.10;99.90;;;;;;6209477;23;20013;-64
2024/01/18 10:01:45;;;;;;;24.40;10.23;;;8.10;99.90;;;;;;6186063;23;20059;-65
2024/01/18 10:04:14;;;;;;;20.53;10.77;;;8.00;99.90;;;;;;6185751;23;20017;-68
2024/01/18 10:06:41;;;;;;;18.23;10.10;;;8.10;99.90;;;;;;6185794;23;20072;-65
2024/01/18 10:09:17;;;;;;;22.43;11.27;;;8.10;99.90;;;;;;6185712;23;20004;-65
2024/01/18 10:12:30;;;;;;;23.00;11.07;;;8.10;99.90;;;;;;6185107;23;20013;-67
2024/01/18 10:19:00;;;;;;;23.05;11.80;;;8.10;99.90;;;;;;6123159;23;20023;-65
2024/01/18 10:28:35;;;;;;;22.83;12.17;;;8.10;99.90;;;;;;6048949;23;20479;-64
2024/01/18 10:31:25;;;;;;;25.00;12.63;;;8.10;99.90;;;;;;6065826;23;20002;-64
2024/01/18 10:33:51;;;;;;;24.27;11.83;;;8.10;99.90;;;;;;6007844;23;20020;-66
2024/01/18 10:36:19;;;;;;;24.20;11.97;;;8.10;99.90;;;;;;6082347;23;20003;-64
2024/01/18 10:38:45;;;;;;;27.87;12.23;;;8.10;99.90;;;;;;6118348;23;20333;-65
2024/01/18 10:41:11;;;;;;;26.10;13.23;;;8.20;99.90;;;;;;6185257;23;20342;-65
2024/01/18 10:43:38;;;;;;;31.37;14.63;;;8.20;99.90;;;;;;6185228;23;20005;-65
2024/01/18 10:46:05;;;;;;;36.17;13.93;;;8.20;99.90;;;;;;6185172;23;20005;-67
2024/01/18 10:48:32;;;;;;;30.00;13.17;;;8.20;99.90;;;;;;6185166;23;20008;-67
2024/01/18 10:50:59;;;;;;;25.77;13.50;;;8.20;99.90;;;;;;6185242;23;20005;-66
2024/01/18 10:53:29;;;;;;;26.43;12.63;;;8.20;99.90;;;;;;6208056;23;20016;-67
2024/01/18 10:55:55;;;;;;;22.63;11.00;;;8.30;99.90;;;;;;6184820;23;20006;-67
2024/01/18 10:58:21;;;;;;;33.50;11.67;;;8.30;99.90;;;;;;6185129;23;20005;-67
2024/01/18 11:00:47;;;;;;;25.93;12.80;;;8.30;99.90;;;;;;6185020;23;20043;-67
2024/01/18 11:03:15;;;;;;;25.20;11.43;;;8.40;99.90;;;;;;6185107;23;20005;-67
2024/01/18 11:05:44;;;;;;;25.10;12.23;;;8.40;99.90;;;;;;6184528;23;20396;-66
2024/01/18 11:08:10;;;;;;;21.43;11.87;;;8.40;99.90;;;;;;6158595;23;20339;-72
2024/01/18 11:10:36;;;;;;;20.40;11.00;;;8.40;99.90;;;;;;6158776;23;20005;-71
2024/01/18 11:13:04;;;;;;;19.87;10.97;;;8.40;99.90;;;;;;6184847;23;20020;-66
2024/01/18 11:15:31;;;;;;;19.97;10.43;;;8.50;99.90;;;;;;6185143;23;20001;-66
2024/01/18 11:17:58;;;;;;;18.00;10.63;;;8.50;99.90;;;;;;6184753;23;20016;-66
2024/01/18 11:20:24;;;;;;;21.60;11.10;;;8.50;99.90;;;;;;6185087;23;20076;-66
2024/01/18 11:22:50;;;;;;;20.07;11.40;;;8.50;99.90;;;;;;6185166;23;20060;-67
2024/01/18 11:25:28;;;;;;;18.50;10.90;;;8.50;99.90;;;;;;6185163;23;19997;-66
2024/01/18 11:27:54;;;;;;;16.97;10.70;;;8.50;99.90;;;;;;6185038;23;20001;-68
2024/01/18 11:30:40;;;;;;;18.40;10.87;;;8.50;99.90;;;;;;6184962;23;20332;-66
2024/01/18 11:33:09;;;;;;;20.70;11.67;;;8.50;99.90;;;;;;6185751;23;20021;-68
2024/01/18 11:35:35;;;;;;;21.03;12.67;;;8.50;99.90;;;;;;6186991;23;20332;-69
2024/01/18 11:38:33;;;;;;;28.43;13.67;;;8.50;99.90;;;;;;6186987;23;20016;-68
2024/01/18 11:41:09;;;;;;;27.53;13.60;;;8.50;99.90;;;;;;6187283;23;20007;-68
2024/01/18 11:43:57;;;;;;;22.73;13.50;;;8.50;99.90;;;;;;6187471;23;20305;-69
2024/01/18 11:46:48;;;;;;;27.23;12.57;;;8.50;99.90;;;;;;6186924;23;20017;-66
2024/01/18 11:49:22;;;;;;;19.50;12.27;;;8.50;99.90;;;;;;6186541;23;20054;-68
2024/01/18 11:55:59;;;;;;;17.53;11.50;;;8.50;99.90;;;;;;6089196;23;20018;-68
2024/01/18 11:58:50;;;;;;;;;;;8.50;99.90;;;;;;6186407;23;20355;-66
2024/01/18 12:01:54;;;;;;;19.60;12.13;;;8.50;99.90;;;;;;6186233;23;19900;-66
2024/01/18 12:04:48;;;;;;;18.90;12.48;;;8.50;99.90;;;;;;6185850;23;20013;-68
2024/01/18 12:10:47;;;;;;;20.23;13.17;;;8.60;99.90;;;;;;6124426;23;20017;-68
2024/01/18 12:13:13;;;;;;;19.10;13.37;;;8.50;99.90;;;;;;6185330;23;20351;-66
2024/01/18 12:15:41;;;;;;;24.27;14.23;;;8.50;99.90;;;;;;6186486;23;20390;-66
2024/01/18 12:18:07;;;;;;;21.90;14.40;;;8.60;99.90;;;;;;6186217;23;20005;-68
2024/01/18 12:20:35;;;;;;;22.53;15.20;;;8.60;99.90;;;;;;6186394;23;20008;-68
2024/01/18 12:23:01;;;;;;;21.80;15.13;;;8.60;99.90;;;;;;6185807;23;20008;-68
2024/01/18 12:25:28;;;;;;;21.30;14.87;;;8.60;99.90;;;;;;6185955;23;20323;-68
2024/01/18 12:27:54;;;;;;;20.50;14.43;;;8.60;99.90;;;;;;6186301;23;20005;-68
2024/01/18 12:30:20;;;;;;;20.70;13.43;;;8.50;99.90;;;;;;6186302;23;20009;-68
2024/01/18 12:32:48;;;;;;;24.07;13.60;;;8.50;99.90;;;;;;6185948;23;20036;-68
2024/01/18 12:35:13;;;;;;;20.77;13.57;;;8.60;99.90;;;;;;6185280;23;20025;-68
2024/01/18 12:37:39;;;;;;;21.37;14.13;;;8.60;99.90;;;;;;6185510;23;19997;-65
2024/01/18 12:40:09;;;;;;;24.33;14.47;;;8.60;99.90;;;;;;6185955;23;20076;-66
2024/01/18 12:42:35;;;;;;;23.20;14.77;;;8.60;99.90;;;;;;6186003;23;20442;-66
2024/01/18 12:45:00;;;;;;;22.20;14.67;;;8.60;99.90;;;;;;6185816;23;20001;-65
2024/01/18 12:47:27;;;;;;;19.43;14.00;;;8.60;99.90;;;;;;6185931;23;20006;-66
2024/01/18 12:49:54;;;;;;;26.23;15.60;;;8.60;99.90;;;;;;6186228;23;20423;-65
2024/01/18 12:52:20;;;;;;;27.53;15.93;;;8.60;99.90;;;;;;6185800;23;20012;-65
2024/01/18 12:54:47;;;;;;;27.93;15.37;;;8.60;99.90;;;;;;6185815;23;20096;-65
2024/01/18 12:57:13;;;;;;;29.17;17.13;;;8.60;99.90;;;;;;6185366;23;20380;-65
2024/01/18 12:59:40;;;;;;;27.17;16.57;;;8.60;99.90;;;;;;6185338;23;19997;-65
2024/01/18 13:02:05;;;;;;;29.50;16.70;;;8.60;99.90;;;;;;6185593;23;20001;-65
2024/01/18 13:04:33;;;;;;;24.93;15.37;;;8.60;99.90;;;;;;6185706;23;20080;-65
2024/01/18 13:07:01;;;;;;;24.03;15.47;;;8.60;99.90;;;;;;6185810;23;20001;-68
2024/01/18 13:09:28;;;;;;;22.30;15.63;;;8.60;99.90;;;;;;6185685;23;20001;-70
2024/01/18 13:12:02;;;;;;;22.63;15.63;;;8.60;99.90;;;;;;6186146;23;20021;-69
2024/01/18 13:14:28;;;;;;;23.20;15.50;;;8.70;99.90;;;;;;6185689;23;20084;-69
2024/01/18 13:16:56;;;;;;;26.90;16.47;;;8.70;99.90;;;;;;6186452;23;20044;-69
2024/01/18 13:19:22;;;;;;;23.20;15.93;;;8.80;99.90;;;;;;6185510;23;20001;-67
2024/01/18 13:29:55;;;;;;;27.50;16.33;;;8.70;99.90;;;;;;5939892;24;20015;-69
2024/01/18 13:35:58;;;;;;;29.93;17.30;;;8.80;99.90;;;;;;5980637;23;20069;-69
2024/01/18 13:41:45;;;;;;;30.93;18.23;;;8.80;99.90;;;;;;5992245;23;20079;-67
2024/01/18 13:47:46;;;;;;;33.20;19.70;;;8.70;99.90;;;;;;6008110;23;20469;-68
2024/01/18 13:50:13;;;;;;;30.20;20.70;;;8.70;99.90;;;;;;6008381;23;20007;-68
2024/01/18 13:52:39;;;;;;;29.00;20.27;;;8.70;99.90;;;;;;6155741;23;20020;-66
2024/01/18 13:55:05;;;;;;;36.63;20.80;;;8.70;99.90;;;;;;6184636;23;19997;-66
2024/01/18 13:57:31;;;;;;;35.13;22.27;;;8.70;99.90;;;;;;6184638;23;20080;-66
2024/01/18 13:59:57;;;;;;;33.10;20.90;;;8.70;99.90;;;;;;6158658;23;20381;-67
2024/01/18 14:02:24;;;;;;;31.77;20.90;;;8.70;99.90;;;;;;6208616;23;20005;-66
2024/01/18 14:04:49;;;;;;;30.67;19.03;;;8.70;99.90;;;;;;6184848;23;20399;-66
2024/01/18 14:07:15;;;;;;;31.77;19.77;;;8.70;99.90;;;;;;6184751;23;20093;-66
2024/01/18 14:09:41;;;;;;;30.33;20.00;;;8.70;99.90;;;;;;6185165;23;20012;-66
2024/01/18 14:12:07;;;;;;;31.67;20.80;;;8.70;99.90;;;;;;6185228;23;20473;-66
2024/01/18 14:14:33;;;;;;;30.50;20.57;;;8.70;99.90;;;;;;6185651;23;20025;-66
2024/01/18 14:16:59;;;;;;;29.50;20.73;;;8.70;99.90;;;;;;6185109;23;20009;-66
2024/01/18 14:19:25;;;;;;;28.83;20.90;;;8.70;99.90;;;;;;6184584;23;20004;-66
2024/01/18 14:21:50;;;;;;;34.33;21.57;;;8.70;99.90;;;;;;6185040;23;20051;-66
2024/01/18 14:24:16;;;;;;;34.27;22.20;;;8.70;99.90;;;;;;6185150;23;20005;-66
2024/01/18 14:26:42;;;;;;;31.87;21.07;;;8.70;99.90;;;;;;6185115;23;20016;-67
2024/01/18 14:29:10;;;;;;;35.10;22.50;;;8.70;99.90;;;;;;6181682;23;20005;-67
2024/01/18 14:31:36;;;;;;;37.77;24.63;;;8.70;99.90;;;;;;6178701;23;20020;-68
2024/01/18 14:34:02;;;;;;;39.37;24.23;;;8.70;99.90;;;;;;6178576;23;20497;-68
2024/01/18 14:36:28;;;;;;;37.33;23.70;;;8.70;99.90;;;;;;6182513;23;20009;-68
2024/01/18 14:38:54;;;;;;;38.70;25.10;;;8.70;99.90;;;;;;6181720;23;20081;-67
2024/01/18 14:41:20;;;;;;;45.30;26.10;;;8.70;99.90;;;;;;6181015;23;20004;-67
2024/01/18 14:43:45;;;;;;;35.13;23.23;;;8.70;99.90;;;;;;6182525;23;20032;-66
2024/01/18 14:46:11;;;;;;;42.90;24.97;;;8.70;99.90;;;;;;6182962;23;20032;-66
2024/01/18 14:48:37;;;;;;;37.77;24.27;;;8.70;99.90;;;;;;6183150;23;20008;-66
2024/01/18 14:51:03;;;;;;;37.30;24.17;;;8.70;99.90;;;;;;6181724;23;20032;-72
2024/01/18 14:53:29;;;;;;;40.60;24.97;;;8.70;99.90;;;;;;6181761;23;20017;-66
2024/01/18 14:55:55;;;;;;;34.43;24.17;;;8.70;99.90;;;;;;6184202;23;20480;-65
2024/01/18 14:58:25;;;;;;;39.23;24.77;;;8.70;99.90;;;;;;6182355;23;20431;-66